sensor_id;sensor_type;location;lat;lon;timestamp;P1;durP1;ratioP1;P2;durP2;ratioP2
3726;SDS011;1879;45.876;12.300;2023-09-19T00:00:33;10.87;;;9.80;;
3726;SDS011;1879;45.876;12.300;2023-09-19T00:03:01;12.03;;;10.20;;
3726;SDS011;1879;45.876;12.300;2023-09-19T00:05:34;14.43;;;11.03;;
3726;SDS011;1879;45.876;12.300;2023-09-19T00:08:03;11.20;;;10.00;;
3726;SDS011;1879;45.876;12.300;2023-09-19T00:10:31;10.97;;;9.80;;
3726;SDS011;1879;45.876;12.300;2023-09-19T00:13:00;12.10;;;10.23;;
3726;SDS011;1879;45.876;12.300;2023-09-19T00:15:30;12.70;;;10.57;;
3726;SDS011;1879;45.876;12.300;2023-09-19T00:18:02;13.80;;;10.27;;
3726;SDS011;1879;45.876;12.300;2023-09-19T00:20:34;12.47;;;10.80;;
3726;SDS011;1879;45.876;12.300;2023-09-19T00:23:02;11.30;;;9.97;;
3726;SDS011;1879;45.876;12.300;2023-09-19T00:25:34;11.50;;;9.20;;
3726;SDS011;1879;45.876;12.300;2023-09-19T00:28:02;13.17;;;9.63;;
3726;SDS011;1879;45.876;12.300;2023-09-19T00:30:30;12.57;;;10.73;;
3726;SDS011;1879;45.876;12.300;2023-09-19T00:32:58;11.60;;;10.50;;
3726;SDS011;1879;45.876;12.300;2023-09-19T00:35:26;16.03;;;11.83;;
3726;SDS011;1879;45.876;12.300;2023-09-19T00:37:54;15.73;;;11.40;;
3726;SDS011;1879;45.876;12.300;2023-09-19T00:40:21;11.60;;;10.43;;
3726;SDS011;1879;45.876;12.300;2023-09-19T00:42:49;13.43;;;11.87;;
3726;SDS011;1879;45.876;12.300;2023-09-19T00:45:16;12.17;;;10.90;;
3726;SDS011;1879;45.876;12.300;2023-09-19T00:47:46;13.30;;;11.20;;
3726;SDS011;1879;45.876;12.300;2023-09-19T00:50:15;11.90;;;10.57;;
3726;SDS011;1879;45.876;12.300;2023-09-19T00:52:44;13.00;;;11.10;;
3726;SDS011;1879;45.876;12.300;2023-09-19T00:55:16;14.70;;;11.77;;
3726;SDS011;1879;45.876;12.300;2023-09-19T00:57:44;12.87;;;11.63;;
3726;SDS011;1879;45.876;12.300;2023-09-19T01:00:13;13.30;;;11.77;;
3726;SDS011;1879;45.876;12.300;2023-09-19T01:02:41;16.20;;;11.80;;
3726;SDS011;1879;45.876;12.300;2023-09-19T01:05:09;20.70;;;11.50;;
3726;SDS011;1879;45.876;12.300;2023-09-19T01:07:36;11.30;;;10.17;;
3726;SDS011;1879;45.876;12.300;2023-09-19T01:10:05;11.53;;;10.33;;
3726;SDS011;1879;45.876;12.300;2023-09-19T01:12:54;15.90;;;12.27;;
3726;SDS011;1879;45.876;12.300;2023-09-19T01:15:31;13.33;;;12.00;;
3726;SDS011;1879;45.876;12.300;2023-09-19T01:18:08;16.90;;;13.10;;
3726;SDS011;1879;45.876;12.300;2023-09-19T01:20:44;16.50;;;13.30;;
3726;SDS011;1879;45.876;12.300;2023-09-19T01:23:20;14.70;;;12.70;;
3726;SDS011;1879;45.876;12.300;2023-09-19T01:26:04;14.33;;;12.40;;
3726;SDS011;1879;45.876;12.300;2023-09-19T01:28:45;15.60;;;13.40;;
3726;SDS011;1879;45.876;12.300;2023-09-19T01:31:31;16.93;;;14.50;;
3726;SDS011;1879;45.876;12.300;2023-09-19T01:34:04;16.50;;;13.57;;
3726;SDS011;1879;45.876;12.300;2023-09-19T01:36:33;15.23;;;12.37;;
3726;SDS011;1879;45.876;12.300;2023-09-19T01:39:02;18.67;;;13.53;;
3726;SDS011;1879;45.876;12.300;2023-09-19T01:41:38;15.77;;;12.80;;
3726;SDS011;1879;45.876;12.300;2023-09-19T01:44:21;13.93;;;12.43;;
3726;SDS011;1879;45.876;12.300;2023-09-19T01:46:53;20.77;;;15.50;;
3726;SDS011;1879;45.876;12.300;2023-09-19T01:49:33;14.00;;;12.63;;
3726;SDS011;1879;45.876;12.300;2023-09-19T01:52:11;19.83;;;14.10;;
3726;SDS011;1879;45.876;12.300;2023-09-19T01:54:41;14.73;;;13.30;;
3726;SDS011;1879;45.876;12.300;2023-09-19T01:57:16;14.37;;;12.60;;
3726;SDS011;1879;45.876;12.300;2023-09-19T01:59:50;19.73;;;14.07;;
3726;SDS011;1879;45.876;12.300;2023-09-19T02:02:24;19.93;;;13.17;;
3726;SDS011;1879;45.876;12.300;2023-09-19T02:04:52;15.33;;;13.83;;
3726;SDS011;1879;45.876;12.300;2023-09-19T02:07:21;14.27;;;12.73;;
3726;SDS011;1879;45.876;12.300;2023-09-19T02:09:48;15.70;;;13.47;;
3726;SDS011;1879;45.876;12.300;2023-09-19T02:12:15;21.20;;;13.10;;
3726;SDS011;1879;45.876;12.300;2023-09-19T02:14:42;13.30;;;12.00;;
3726;SDS011;1879;45.876;12.300;2023-09-19T02:17:09;17.67;;;15.77;;
3726;SDS011;1879;45.876;12.300;2023-09-19T02:19:39;16.40;;;14.73;;
3726;SDS011;1879;45.876;12.300;2023-09-19T02:22:06;14.60;;;13.10;;
3726;SDS011;1879;45.876;12.300;2023-09-19T02:24:35;20.43;;;15.60;;
3726;SDS011;1879;45.876;12.300;2023-09-19T02:27:03;17.00;;;15.27;;
3726;SDS011;1879;45.876;12.300;2023-09-19T02:29:30;18.00;;;16.30;;
3726;SDS011;1879;45.876;12.300;2023-09-19T02:31:59;19.00;;;16.13;;
3726;SDS011;1879;45.876;12.300;2023-09-19T02:34:27;17.70;;;15.77;;
3726;SDS011;1879;45.876;12.300;2023-09-19T02:36:56;17.83;;;15.20;;
3726;SDS011;1879;45.876;12.300;2023-09-19T02:39:23;19.10;;;16.07;;
3726;SDS011;1879;45.876;12.300;2023-09-19T02:41:50;17.67;;;15.87;;
3726;SDS011;1879;45.876;12.300;2023-09-19T02:44:17;17.90;;;15.33;;
3726;SDS011;1879;45.876;12.300;2023-09-19T02:46:45;20.80;;;18.10;;
3726;SDS011;1879;45.876;12.300;2023-09-19T02:49:13;17.50;;;14.80;;
3726;SDS011;1879;45.876;12.300;2023-09-19T02:51:40;18.33;;;15.93;;
3726;SDS011;1879;45.876;12.300;2023-09-19T02:54:08;20.73;;;18.30;;
3726;SDS011;1879;45.876;12.300;2023-09-19T02:56:36;20.53;;;17.33;;
3726;SDS011;1879;45.876;12.300;2023-09-19T02:59:03;23.90;;;17.47;;
3726;SDS011;1879;45.876;12.300;2023-09-19T03:01:30;18.87;;;16.97;;
3726;SDS011;1879;45.876;12.300;2023-09-19T03:03:58;20.97;;;17.60;;
3726;SDS011;1879;45.876;12.300;2023-09-19T03:06:25;21.20;;;18.40;;
3726;SDS011;1879;45.876;12.300;2023-09-19T03:08:52;19.70;;;17.80;;
3726;SDS011;1879;45.876;12.300;2023-09-19T03:11:23;21.43;;;19.33;;
3726;SDS011;1879;45.876;12.300;2023-09-19T03:13:50;19.83;;;17.83;;
3726;SDS011;1879;45.876;12.300;2023-09-19T03:16:18;17.73;;;15.63;;
3726;SDS011;1879;45.876;12.300;2023-09-19T03:18:47;21.50;;;16.73;;
3726;SDS011;1879;45.876;12.300;2023-09-19T03:21:14;20.37;;;17.57;;
3726;SDS011;1879;45.876;12.300;2023-09-19T03:23:41;19.47;;;16.03;;
3726;SDS011;1879;45.876;12.300;2023-09-19T03:26:10;18.87;;;16.30;;
3726;SDS011;1879;45.876;12.300;2023-09-19T03:28:41;24.30;;;21.70;;
3726;SDS011;1879;45.876;12.300;2023-09-19T03:31:08;19.57;;;17.40;;
3726;SDS011;1879;45.876;12.300;2023-09-19T03:33:36;20.70;;;16.90;;
3726;SDS011;1879;45.876;12.300;2023-09-19T03:36:03;20.00;;;17.97;;
3726;SDS011;1879;45.876;12.300;2023-09-19T03:38:31;20.10;;;16.40;;
3726;SDS011;1879;45.876;12.300;2023-09-19T03:40:59;26.13;;;16.97;;
3726;SDS011;1879;45.876;12.300;2023-09-19T03:43:26;21.13;;;18.80;;
3726;SDS011;1879;45.876;12.300;2023-09-19T03:45:55;20.03;;;16.70;;
3726;SDS011;1879;45.876;12.300;2023-09-19T03:48:21;27.47;;;22.17;;
3726;SDS011;1879;45.876;12.300;2023-09-19T03:50:48;25.53;;;19.30;;
3726;SDS011;1879;45.876;12.300;2023-09-19T03:53:16;22.10;;;19.87;;
3726;SDS011;1879;45.876;12.300;2023-09-19T03:55:44;21.57;;;19.33;;
3726;SDS011;1879;45.876;12.300;2023-09-19T03:58:12;19.00;;;17.10;;
3726;SDS011;1879;45.876;12.300;2023-09-19T04:00:39;21.97;;;19.20;;
3726;SDS011;1879;45.876;12.300;2023-09-19T04:03:07;22.40;;;20.20;;
3726;SDS011;1879;45.876;12.300;2023-09-19T04:05:35;21.33;;;19.13;;
3726;SDS011;1879;45.876;12.300;2023-09-19T04:08:03;27.50;;;18.60;;
3726;SDS011;1879;45.876;12.300;2023-09-19T04:10:30;23.87;;;21.13;;
3726;SDS011;1879;45.876;12.300;2023-09-19T04:12:57;22.80;;;20.80;;
3726;SDS011;1879;45.876;12.300;2023-09-19T04:15:24;21.50;;;18.70;;
3726;SDS011;1879;45.876;12.300;2023-09-19T04:17:52;19.90;;;17.90;;
3726;SDS011;1879;45.876;12.300;2023-09-19T04:20:20;19.63;;;17.53;;
3726;SDS011;1879;45.876;12.300;2023-09-19T04:22:48;19.03;;;17.10;;
3726;SDS011;1879;45.876;12.300;2023-09-19T04:25:15;19.00;;;17.23;;
3726;SDS011;1879;45.876;12.300;2023-09-19T04:27:43;22.30;;;18.53;;
3726;SDS011;1879;45.876;12.300;2023-09-19T04:30:11;19.27;;;17.23;;
3726;SDS011;1879;45.876;12.300;2023-09-19T04:32:40;20.40;;;18.57;;
3726;SDS011;1879;45.876;12.300;2023-09-19T04:35:07;20.47;;;18.43;;
3726;SDS011;1879;45.876;12.300;2023-09-19T04:37:38;19.57;;;17.53;;
3726;SDS011;1879;45.876;12.300;2023-09-19T04:40:06;19.00;;;16.33;;
3726;SDS011;1879;45.876;12.300;2023-09-19T04:42:38;21.57;;;19.40;;
3726;SDS011;1879;45.876;12.300;2023-09-19T04:45:07;20.33;;;18.23;;
3726;SDS011;1879;45.876;12.300;2023-09-19T04:47:35;28.80;;;18.97;;
3726;SDS011;1879;45.876;12.300;2023-09-19T04:50:05;21.33;;;19.43;;
3726;SDS011;1879;45.876;12.300;2023-09-19T04:52:38;26.77;;;20.30;;
3726;SDS011;1879;45.876;12.300;2023-09-19T04:55:07;20.90;;;19.03;;
3726;SDS011;1879;45.876;12.300;2023-09-19T04:57:35;26.43;;;21.00;;
3726;SDS011;1879;45.876;12.300;2023-09-19T05:00:04;23.00;;;20.80;;
3726;SDS011;1879;45.876;12.300;2023-09-19T05:02:37;24.30;;;20.00;;
3726;SDS011;1879;45.876;12.300;2023-09-19T05:05:05;21.47;;;19.30;;
3726;SDS011;1879;45.876;12.300;2023-09-19T05:07:33;27.10;;;21.37;;
3726;SDS011;1879;45.876;12.300;2023-09-19T05:10:02;24.03;;;20.93;;
3726;SDS011;1879;45.876;12.300;2023-09-19T05:12:32;26.20;;;20.70;;
3726;SDS011;1879;45.876;12.300;2023-09-19T05:14:59;24.60;;;22.30;;
3726;SDS011;1879;45.876;12.300;2023-09-19T05:17:28;22.63;;;20.53;;
3726;SDS011;1879;45.876;12.300;2023-09-19T05:19:55;26.30;;;23.83;;
3726;SDS011;1879;45.876;12.300;2023-09-19T05:22:22;23.37;;;21.07;;
3726;SDS011;1879;45.876;12.300;2023-09-19T05:24:50;23.47;;;20.70;;
3726;SDS011;1879;45.876;12.300;2023-09-19T05:27:19;22.90;;;20.60;;
3726;SDS011;1879;45.876;12.300;2023-09-19T05:29:47;24.87;;;22.03;;
3726;SDS011;1879;45.876;12.300;2023-09-19T05:32:15;23.70;;;21.23;;
3726;SDS011;1879;45.876;12.300;2023-09-19T05:34:44;25.47;;;23.07;;
3726;SDS011;1879;45.876;12.300;2023-09-19T05:37:12;33.13;;;25.00;;
3726;SDS011;1879;45.876;12.300;2023-09-19T05:39:40;23.47;;;21.10;;
3726;SDS011;1879;45.876;12.300;2023-09-19T05:42:07;26.60;;;22.47;;
3726;SDS011;1879;45.876;12.300;2023-09-19T05:44:36;24.40;;;21.87;;
3726;SDS011;1879;45.876;12.300;2023-09-19T05:47:03;25.13;;;22.43;;
3726;SDS011;1879;45.876;12.300;2023-09-19T05:49:30;28.43;;;22.93;;
3726;SDS011;1879;45.876;12.300;2023-09-19T05:51:58;26.47;;;23.63;;
3726;SDS011;1879;45.876;12.300;2023-09-19T05:54:26;25.77;;;23.33;;
3726;SDS011;1879;45.876;12.300;2023-09-19T05:56:53;25.23;;;22.53;;
3726;SDS011;1879;45.876;12.300;2023-09-19T05:59:20;23.97;;;21.60;;
3726;SDS011;1879;45.876;12.300;2023-09-19T06:01:49;25.67;;;23.27;;
3726;SDS011;1879;45.876;12.300;2023-09-19T06:04:17;22.37;;;19.10;;
3726;SDS011;1879;45.876;12.300;2023-09-19T06:06:44;23.07;;;19.33;;
3726;SDS011;1879;45.876;12.300;2023-09-19T06:09:13;24.13;;;17.23;;
3726;SDS011;1879;45.876;12.300;2023-09-19T06:11:41;20.10;;;18.30;;
3726;SDS011;1879;45.876;12.300;2023-09-19T06:14:08;16.87;;;15.30;;
3726;SDS011;1879;45.876;12.300;2023-09-19T06:16:35;19.17;;;17.10;;
3726;SDS011;1879;45.876;12.300;2023-09-19T06:19:04;27.13;;;20.80;;
3726;SDS011;1879;45.876;12.300;2023-09-19T06:21:34;22.47;;;20.47;;
3726;SDS011;1879;45.876;12.300;2023-09-19T06:24:01;26.07;;;23.23;;
3726;SDS011;1879;45.876;12.300;2023-09-19T06:26:29;25.90;;;23.20;;
3726;SDS011;1879;45.876;12.300;2023-09-19T06:28:56;29.03;;;26.00;;
3726;SDS011;1879;45.876;12.300;2023-09-19T06:31:24;28.20;;;25.40;;
3726;SDS011;1879;45.876;12.300;2023-09-19T06:33:52;18.87;;;13.53;;
3726;SDS011;1879;45.876;12.300;2023-09-19T06:36:20;27.07;;;23.90;;
3726;SDS011;1879;45.876;12.300;2023-09-19T06:38:47;25.40;;;22.70;;
3726;SDS011;1879;45.876;12.300;2023-09-19T06:41:16;25.70;;;23.03;;
3726;SDS011;1879;45.876;12.300;2023-09-19T06:43:43;30.37;;;23.50;;
3726;SDS011;1879;45.876;12.300;2023-09-19T06:46:10;17.47;;;13.57;;
3726;SDS011;1879;45.876;12.300;2023-09-19T06:48:38;16.70;;;14.90;;
3726;SDS011;1879;45.876;12.300;2023-09-19T06:51:05;13.93;;;12.40;;
3726;SDS011;1879;45.876;12.300;2023-09-19T06:53:34;15.90;;;10.80;;
3726;SDS011;1879;45.876;12.300;2023-09-19T06:56:01;14.83;;;11.50;;
3726;SDS011;1879;45.876;12.300;2023-09-19T06:58:29;12.53;;;6.47;;
3726;SDS011;1879;45.876;12.300;2023-09-19T07:00:56;6.47;;;5.07;;
3726;SDS011;1879;45.876;12.300;2023-09-19T07:03:23;5.43;;;4.80;;
3726;SDS011;1879;45.876;12.300;2023-09-19T07:05:53;6.10;;;5.03;;
3726;SDS011;1879;45.876;12.300;2023-09-19T07:08:23;9.10;;;5.13;;
3726;SDS011;1879;45.876;12.300;2023-09-19T07:10:52;5.37;;;4.70;;
3726;SDS011;1879;45.876;12.300;2023-09-19T07:13:19;7.30;;;5.20;;
3726;SDS011;1879;45.876;12.300;2023-09-19T07:15:46;7.50;;;4.80;;
3726;SDS011;1879;45.876;12.300;2023-09-19T07:18:15;8.40;;;4.93;;
3726;SDS011;1879;45.876;12.300;2023-09-19T07:20:43;6.93;;;5.80;;
3726;SDS011;1879;45.876;12.300;2023-09-19T07:23:14;7.53;;;5.57;;
3726;SDS011;1879;45.876;12.300;2023-09-19T07:25:41;8.60;;;5.97;;
3726;SDS011;1879;45.876;12.300;2023-09-19T07:28:10;7.40;;;6.70;;
3726;SDS011;1879;45.876;12.300;2023-09-19T07:30:37;7.13;;;6.50;;
3726;SDS011;1879;45.876;12.300;2023-09-19T07:33:06;16.63;;;8.50;;
3726;SDS011;1879;45.876;12.300;2023-09-19T07:35:36;7.80;;;7.10;;
3726;SDS011;1879;45.876;12.300;2023-09-19T07:38:05;13.57;;;9.00;;
3726;SDS011;1879;45.876;12.300;2023-09-19T07:40:33;9.63;;;8.63;;
3726;SDS011;1879;45.876;12.300;2023-09-19T07:43:01;12.10;;;9.50;;
3726;SDS011;1879;45.876;12.300;2023-09-19T07:45:31;10.83;;;9.70;;
3726;SDS011;1879;45.876;12.300;2023-09-19T07:47:58;15.17;;;11.40;;
3726;SDS011;1879;45.876;12.300;2023-09-19T07:50:29;12.27;;;10.67;;
3726;SDS011;1879;45.876;12.300;2023-09-19T07:52:56;17.27;;;11.70;;
3726;SDS011;1879;45.876;12.300;2023-09-19T07:55:24;13.13;;;10.93;;
3726;SDS011;1879;45.876;12.300;2023-09-19T07:57:51;11.77;;;10.67;;
3726;SDS011;1879;45.876;12.300;2023-09-19T08:00:18;17.53;;;12.10;;
3726;SDS011;1879;45.876;12.300;2023-09-19T08:02:47;13.00;;;11.67;;
3726;SDS011;1879;45.876;12.300;2023-09-19T08:05:14;12.33;;;11.00;;
3726;SDS011;1879;45.876;12.300;2023-09-19T08:07:42;13.33;;;11.83;;
3726;SDS011;1879;45.876;12.300;2023-09-19T08:10:10;14.23;;;12.60;;
3726;SDS011;1879;45.876;12.300;2023-09-19T08:12:38;13.53;;;11.87;;
3726;SDS011;1879;45.876;12.300;2023-09-19T08:15:11;16.83;;;12.53;;
3726;SDS011;1879;45.876;12.300;2023-09-19T08:17:38;15.57;;;12.77;;
3726;SDS011;1879;45.876;12.300;2023-09-19T08:20:08;17.57;;;12.47;;
3726;SDS011;1879;45.876;12.300;2023-09-19T08:22:41;16.50;;;12.60;;
3726;SDS011;1879;45.876;12.300;2023-09-19T08:25:09;13.17;;;11.77;;
3726;SDS011;1879;45.876;12.300;2023-09-19T08:27:36;13.80;;;12.37;;
3726;SDS011;1879;45.876;12.300;2023-09-19T08:30:03;17.40;;;12.90;;
3726;SDS011;1879;45.876;12.300;2023-09-19T08:32:31;20.80;;;13.20;;
3726;SDS011;1879;45.876;12.300;2023-09-19T08:34:59;15.80;;;12.03;;
3726;SDS011;1879;45.876;12.300;2023-09-19T08:37:28;15.23;;;13.03;;
3726;SDS011;1879;45.876;12.300;2023-09-19T08:39:55;18.23;;;13.43;;
3726;SDS011;1879;45.876;12.300;2023-09-19T08:42:22;16.67;;;13.80;;
3726;SDS011;1879;45.876;12.300;2023-09-19T08:44:50;18.33;;;14.23;;
3726;SDS011;1879;45.876;12.300;2023-09-19T08:47:20;21.03;;;14.70;;
3726;SDS011;1879;45.876;12.300;2023-09-19T08:49:51;18.27;;;13.60;;
3726;SDS011;1879;45.876;12.300;2023-09-19T08:52:22;19.50;;;14.83;;
3726;SDS011;1879;45.876;12.300;2023-09-19T08:54:52;13.90;;;12.03;;
3726;SDS011;1879;45.876;12.300;2023-09-19T08:57:21;15.23;;;11.00;;
3726;SDS011;1879;45.876;12.300;2023-09-19T08:59:48;16.23;;;12.00;;
3726;SDS011;1879;45.876;12.300;2023-09-19T09:02:16;12.23;;;9.77;;
3726;SDS011;1879;45.876;12.300;2023-09-19T09:04:45;20.07;;;13.47;;
3726;SDS011;1879;45.876;12.300;2023-09-19T09:07:13;15.83;;;11.20;;
3726;SDS011;1879;45.876;12.300;2023-09-19T09:09:41;17.37;;;12.10;;
3726;SDS011;1879;45.876;12.300;2023-09-19T09:12:11;12.93;;;10.60;;
3726;SDS011;1879;45.876;12.300;2023-09-19T09:14:39;14.77;;;10.70;;
3726;SDS011;1879;45.876;12.300;2023-09-19T09:17:06;11.83;;;9.57;;
3726;SDS011;1879;45.876;12.300;2023-09-19T09:19:34;20.07;;;10.70;;
3726;SDS011;1879;45.876;12.300;2023-09-19T09:22:06;18.80;;;10.53;;
3726;SDS011;1879;45.876;12.300;2023-09-19T09:24:34;14.53;;;9.87;;
3726;SDS011;1879;45.876;12.300;2023-09-19T09:27:03;13.67;;;10.03;;
3726;SDS011;1879;45.876;12.300;2023-09-19T09:29:41;12.70;;;10.80;;
3726;SDS011;1879;45.876;12.300;2023-09-19T09:32:21;14.37;;;10.37;;
3726;SDS011;1879;45.876;12.300;2023-09-19T09:34:50;15.23;;;11.20;;
3726;SDS011;1879;45.876;12.300;2023-09-19T09:37:17;13.13;;;10.40;;
3726;SDS011;1879;45.876;12.300;2023-09-19T09:39:52;16.40;;;11.20;;
3726;SDS011;1879;45.876;12.300;2023-09-19T09:42:31;18.07;;;11.73;;
3726;SDS011;1879;45.876;12.300;2023-09-19T09:45:14;21.53;;;12.50;;
3726;SDS011;1879;45.876;12.300;2023-09-19T09:47:42;14.87;;;13.17;;
3726;SDS011;1879;45.876;12.300;2023-09-19T09:50:23;20.70;;;14.60;;
3726;SDS011;1879;45.876;12.300;2023-09-19T09:52:54;21.03;;;14.00;;
3726;SDS011;1879;45.876;12.300;2023-09-19T09:55:26;18.97;;;13.60;;
3726;SDS011;1879;45.876;12.300;2023-09-19T09:58:02;15.63;;;12.47;;
3726;SDS011;1879;45.876;12.300;2023-09-19T10:00:53;19.93;;;11.33;;
3726;SDS011;1879;45.876;12.300;2023-09-19T10:03:31;17.00;;;10.97;;
3726;SDS011;1879;45.876;12.300;2023-09-19T10:05:59;18.17;;;11.07;;
3726;SDS011;1879;45.876;12.300;2023-09-19T10:08:34;14.97;;;11.13;;
3726;SDS011;1879;45.876;12.300;2023-09-19T10:11:13;14.37;;;10.47;;
3726;SDS011;1879;45.876;12.300;2023-09-19T10:13:42;17.60;;;10.73;;
3726;SDS011;1879;45.876;12.300;2023-09-19T10:16:12;15.73;;;11.73;;
3726;SDS011;1879;45.876;12.300;2023-09-19T10:18:40;14.53;;;8.60;;
3726;SDS011;1879;45.876;12.300;2023-09-19T10:21:08;16.00;;;10.23;;
3726;SDS011;1879;45.876;12.300;2023-09-19T10:23:36;16.30;;;9.47;;
3726;SDS011;1879;45.876;12.300;2023-09-19T10:26:05;15.63;;;9.37;;
3726;SDS011;1879;45.876;12.300;2023-09-19T10:28:34;14.73;;;8.40;;
3726;SDS011;1879;45.876;12.300;2023-09-19T10:31:02;14.03;;;8.00;;
3726;SDS011;1879;45.876;12.300;2023-09-19T10:33:34;15.30;;;8.37;;
3726;SDS011;1879;45.876;12.300;2023-09-19T10:36:03;11.30;;;7.43;;
3726;SDS011;1879;45.876;12.300;2023-09-19T10:38:31;11.40;;;7.03;;
3726;SDS011;1879;45.876;12.300;2023-09-19T10:41:00;16.43;;;8.10;;
3726;SDS011;1879;45.876;12.300;2023-09-19T10:43:29;10.13;;;6.80;;
3726;SDS011;1879;45.876;12.300;2023-09-19T10:46:00;14.73;;;7.77;;
3726;SDS011;1879;45.876;12.300;2023-09-19T10:48:29;9.83;;;6.80;;
3726;SDS011;1879;45.876;12.300;2023-09-19T10:50:58;16.63;;;7.50;;
3726;SDS011;1879;45.876;12.300;2023-09-19T10:53:29;14.93;;;7.27;;
3726;SDS011;1879;45.876;12.300;2023-09-19T10:55:59;18.90;;;7.37;;
3726;SDS011;1879;45.876;12.300;2023-09-19T10:58:35;11.73;;;7.60;;
3726;SDS011;1879;45.876;12.300;2023-09-19T11:01:05;8.40;;;6.27;;
3726;SDS011;1879;45.876;12.300;2023-09-19T11:03:33;10.83;;;6.97;;
3726;SDS011;1879;45.876;12.300;2023-09-19T11:06:04;18.40;;;7.47;;
3726;SDS011;1879;45.876;12.300;2023-09-19T11:08:53;15.17;;;7.70;;
3726;SDS011;1879;45.876;12.300;2023-09-19T11:14:13;15.40;;;7.63;;
3726;SDS011;1879;45.876;12.300;2023-09-19T11:16:50;16.13;;;7.23;;
3726;SDS011;1879;45.876;12.300;2023-09-19T11:22:21;14.90;;;7.70;;
3726;SDS011;1879;45.876;12.300;2023-09-19T11:24:51;17.93;;;7.10;;
3726;SDS011;1879;45.876;12.300;2023-09-19T11:27:21;12.30;;;7.33;;
3726;SDS011;1879;45.876;12.300;2023-09-19T11:29:51;9.47;;;6.40;;
3726;SDS011;1879;45.876;12.300;2023-09-19T11:35:23;11.93;;;6.50;;
3726;SDS011;1879;45.876;12.300;2023-09-19T11:38:12;14.47;;;7.50;;
3726;SDS011;1879;45.876;12.300;2023-09-19T11:40:44;11.50;;;6.40;;
3726;SDS011;1879;45.876;12.300;2023-09-19T11:43:32;12.93;;;6.37;;
3726;SDS011;1879;45.876;12.300;2023-09-19T11:46:04;14.30;;;5.80;;
3726;SDS011;1879;45.876;12.300;2023-09-19T11:48:31;8.07;;;5.33;;
3726;SDS011;1879;45.876;12.300;2023-09-19T11:51:00;11.93;;;5.53;;
3726;SDS011;1879;45.876;12.300;2023-09-19T11:53:33;12.57;;;5.90;;
3726;SDS011;1879;45.876;12.300;2023-09-19T11:56:01;9.00;;;5.30;;
3726;SDS011;1879;45.876;12.300;2023-09-19T11:58:29;11.03;;;5.63;;
3726;SDS011;1879;45.876;12.300;2023-09-19T12:00:58;13.03;;;5.57;;
3726;SDS011;1879;45.876;12.300;2023-09-19T12:03:32;10.80;;;5.77;;
3726;SDS011;1879;45.876;12.300;2023-09-19T12:06:00;11.67;;;6.03;;
3726;SDS011;1879;45.876;12.300;2023-09-19T12:08:27;9.77;;;5.83;;
3726;SDS011;1879;45.876;12.300;2023-09-19T12:10:56;10.20;;;5.40;;
3726;SDS011;1879;45.876;12.300;2023-09-19T12:13:24;6.87;;;4.90;;
3726;SDS011;1879;45.876;12.300;2023-09-19T12:15:51;10.33;;;5.43;;
3726;SDS011;1879;45.876;12.300;2023-09-19T12:18:25;10.53;;;5.00;;
3726;SDS011;1879;45.876;12.300;2023-09-19T12:20:53;11.60;;;5.30;;
3726;SDS011;1879;45.876;12.300;2023-09-19T12:23:21;7.43;;;4.77;;
3726;SDS011;1879;45.876;12.300;2023-09-19T12:25:48;9.70;;;5.17;;
3726;SDS011;1879;45.876;12.300;2023-09-19T12:28:20;9.07;;;5.50;;
3726;SDS011;1879;45.876;12.300;2023-09-19T12:30:48;9.70;;;5.10;;
3726;SDS011;1879;45.876;12.300;2023-09-19T12:33:16;11.57;;;5.80;;
3726;SDS011;1879;45.876;12.300;2023-09-19T12:35:45;11.53;;;6.20;;
3726;SDS011;1879;45.876;12.300;2023-09-19T12:38:21;13.10;;;5.87;;
3726;SDS011;1879;45.876;12.300;2023-09-19T12:40:49;7.27;;;5.10;;
3726;SDS011;1879;45.876;12.300;2023-09-19T12:43:17;9.13;;;5.67;;
3726;SDS011;1879;45.876;12.300;2023-09-19T12:45:46;8.17;;;5.60;;
3726;SDS011;1879;45.876;12.300;2023-09-19T12:48:20;9.43;;;5.53;;
3726;SDS011;1879;45.876;12.300;2023-09-19T12:51:03;14.50;;;6.57;;
3726;SDS011;1879;45.876;12.300;2023-09-19T12:53:33;9.33;;;6.30;;
3726;SDS011;1879;45.876;12.300;2023-09-19T12:56:05;12.03;;;5.63;;
3726;SDS011;1879;45.876;12.300;2023-09-19T12:58:33;11.20;;;5.50;;
3726;SDS011;1879;45.876;12.300;2023-09-19T13:01:13;7.53;;;5.07;;
3726;SDS011;1879;45.876;12.300;2023-09-19T13:03:40;8.50;;;5.60;;
3726;SDS011;1879;45.876;12.300;2023-09-19T13:06:08;9.07;;;5.37;;
3726;SDS011;1879;45.876;12.300;2023-09-19T13:08:37;12.00;;;5.57;;
3726;SDS011;1879;45.876;12.300;2023-09-19T13:11:08;10.63;;;5.90;;
3726;SDS011;1879;45.876;12.300;2023-09-19T13:13:37;10.37;;;5.80;;
3726;SDS011;1879;45.876;12.300;2023-09-19T13:16:06;9.27;;;6.10;;
3726;SDS011;1879;45.876;12.300;2023-09-19T13:18:44;9.33;;;5.87;;
3726;SDS011;1879;45.876;12.300;2023-09-19T13:21:11;11.53;;;5.93;;
3726;SDS011;1879;45.876;12.300;2023-09-19T13:23:48;13.50;;;6.63;;
3726;SDS011;1879;45.876;12.300;2023-09-19T13:26:15;9.63;;;5.90;;
3726;SDS011;1879;45.876;12.300;2023-09-19T13:28:42;8.67;;;5.50;;
3726;SDS011;1879;45.876;12.300;2023-09-19T13:31:11;10.90;;;6.27;;
3726;SDS011;1879;45.876;12.300;2023-09-19T13:33:42;11.27;;;6.27;;
3726;SDS011;1879;45.876;12.300;2023-09-19T13:36:10;10.40;;;6.47;;
3726;SDS011;1879;45.876;12.300;2023-09-19T13:38:38;12.83;;;6.80;;
3726;SDS011;1879;45.876;12.300;2023-09-19T13:41:07;17.73;;;7.97;;
3726;SDS011;1879;45.876;12.300;2023-09-19T13:43:35;8.60;;;6.77;;
3726;SDS011;1879;45.876;12.300;2023-09-19T13:46:02;22.03;;;8.60;;
3726;SDS011;1879;45.876;12.300;2023-09-19T13:48:30;12.43;;;7.30;;
3726;SDS011;1879;45.876;12.300;2023-09-19T13:51:02;15.43;;;7.73;;
3726;SDS011;1879;45.876;12.300;2023-09-19T13:53:29;14.83;;;8.73;;
3726;SDS011;1879;45.876;12.300;2023-09-19T13:55:56;15.57;;;10.00;;
3726;SDS011;1879;45.876;12.300;2023-09-19T13:58:23;12.20;;;7.30;;
3726;SDS011;1879;45.876;12.300;2023-09-19T14:00:52;16.00;;;9.97;;
3726;SDS011;1879;45.876;12.300;2023-09-19T14:03:20;16.03;;;9.53;;
3726;SDS011;1879;45.876;12.300;2023-09-19T14:05:49;20.60;;;10.07;;
3726;SDS011;1879;45.876;12.300;2023-09-19T14:08:16;14.97;;;10.37;;
3726;SDS011;1879;45.876;12.300;2023-09-19T14:10:43;15.30;;;9.73;;
3726;SDS011;1879;45.876;12.300;2023-09-19T14:13:11;17.57;;;11.27;;
3726;SDS011;1879;45.876;12.300;2023-09-19T14:15:40;16.03;;;10.40;;
3726;SDS011;1879;45.876;12.300;2023-09-19T14:18:07;13.63;;;9.50;;
3726;SDS011;1879;45.876;12.300;2023-09-19T14:20:37;17.33;;;10.73;;
3726;SDS011;1879;45.876;12.300;2023-09-19T14:23:07;14.43;;;9.37;;
3726;SDS011;1879;45.876;12.300;2023-09-19T14:25:34;15.90;;;9.40;;
3726;SDS011;1879;45.876;12.300;2023-09-19T14:28:01;12.93;;;8.13;;
3726;SDS011;1879;45.876;12.300;2023-09-19T14:30:28;15.37;;;8.70;;
3726;SDS011;1879;45.876;12.300;2023-09-19T14:32:55;13.90;;;7.57;;
3726;SDS011;1879;45.876;12.300;2023-09-19T14:35:23;11.10;;;8.63;;
3726;SDS011;1879;45.876;12.300;2023-09-19T14:37:50;14.00;;;8.33;;
3726;SDS011;1879;45.876;12.300;2023-09-19T14:40:19;10.17;;;8.10;;
3726;SDS011;1879;45.876;12.300;2023-09-19T14:42:47;16.27;;;9.27;;
3726;SDS011;1879;45.876;12.300;2023-09-19T14:45:14;16.30;;;8.60;;
3726;SDS011;1879;45.876;12.300;2023-09-19T14:47:43;14.90;;;9.00;;
3726;SDS011;1879;45.876;12.300;2023-09-19T14:50:12;15.17;;;9.43;;
3726;SDS011;1879;45.876;12.300;2023-09-19T14:52:40;12.77;;;7.40;;
3726;SDS011;1879;45.876;12.300;2023-09-19T14:55:07;11.97;;;7.77;;
3726;SDS011;1879;45.876;12.300;2023-09-19T14:57:40;13.47;;;7.47;;
3726;SDS011;1879;45.876;12.300;2023-09-19T15:00:11;9.87;;;7.27;;
3726;SDS011;1879;45.876;12.300;2023-09-19T15:02:38;11.73;;;8.33;;